Time;durP1;ratioP1;P1;durP2;ratioP2;P2;SDS_P1;SDS_P2;PMS_P1;PMS_P2;Temp;Humidity;BMP_temperature;BMP_pressure;BME280_temperature;BME280_humidity;BME280_pressure;Samples;Min_cycle;Max_cycle;Signal;HPM_P1;HPM_P2
2021/01/17 00:02:31;;;;;;;;;45.00;42.75;;;;;-5.95;60.89;101218.38;5134971;27;8839;-78
2021/01/17 00:05:29;;;;;;;;;39.75;38.75;;;;;-6.21;60.87;101216.53;5143791;27;8821;-78
2021/01/17 00:07:58;;;;;;;;;36.25;35.25;;;;;-6.23;60.77;101216.72;5155225;27;8932;-78
2021/01/17 00:10:54;;;;;;;;;26.75;26.50;;;;;-6.33;61.10;101210.13;5142686;27;8861;-78
2021/01/17 00:13:50;;;;;;;;;35.00;34.25;;;;;-6.86;62.05;101207.38;5158510;27;8849;-77
2021/01/17 00:16:45;;;;;;;;;31.75;29.50;;;;;-6.72;62.80;101217.13;5144263;27;8825;-77
2021/01/17 00:19:41;;;;;;;;;44.00;39.25;;;;;-6.90;63.48;101206.97;5134896;27;9036;-77
2021/01/17 00:22:21;;;;;;;;;31.50;30.00;;;;;-7.03;63.71;101205.06;5138778;27;8842;-77
2021/01/17 00:25:18;;;;;;;;;31.00;30.75;;;;;-6.94;64.22;101205.69;5151280;27;8967;-78
2021/01/17 00:28:14;;;;;;;;;43.50;43.50;;;;;-6.89;64.33;101199.72;5141328;27;9557;-77
2021/01/17 00:31:09;;;;;;;;;47.50;42.25;;;;;-6.98;64.36;101203.59;5137123;27;8855;-77
2021/01/17 00:33:54;;;;;;;;;38.50;38.00;;;;;-7.15;63.82;101190.53;5123223;27;8919;-77
2021/01/17 00:36:50;;;;;;;;;39.00;37.00;;;;;-7.10;63.79;101192.63;5123856;27;8862;-77
2021/01/17 00:39:45;;;;;;;;;30.00;30.00;;;;;-6.70;63.27;101192.69;5137616;27;8859;-78
2021/01/17 00:42:46;;;;;;;;;37.00;33.75;;;;;-6.75;63.29;101190.63;5136735;27;8850;-78
2021/01/17 00:45:41;;;;;;;;;56.50;48.75;;;;;-6.80;63.12;101185.03;5136897;27;8831;-77
2021/01/17 00:48:39;;;;;;;;;35.00;33.25;;;;;-7.24;63.06;101177.47;5123539;27;8861;-77
2021/01/17 00:51:44;;;;;;;;;32.50;31.00;;;;;-7.04;62.83;101189.94;5136671;27;8834;-77
2021/01/17 00:54:39;;;;;;;;;35.00;33.00;;;;;-6.74;62.97;101181.53;5136969;27;8861;-77
2021/01/17 00:57:36;;;;;;;;;34.00;31.50;;;;;-6.73;62.51;101185.88;5136890;27;8822;-77
2021/01/17 01:00:32;;;;;;;;;25.25;25.25;;;;;-7.29;61.95;101172.69;5142823;27;8925;-77
2021/01/17 01:02:59;;;;;;;;;41.00;37.25;;;;;-7.17;62.43;101178.31;5140204;27;8845;-78
2021/01/17 01:05:55;;;;;;;;;31.50;28.25;;;;;-7.38;61.82;101164.00;5126711;27;8831;-77
2021/01/17 01:08:50;;;;;;;;;29.75;29.25;;;;;-7.30;61.86;101166.50;5136100;27;8819;-77
2021/01/17 01:11:47;;;;;;;;;25.25;25.25;;;;;-7.37;62.22;101157.56;5136504;27;8847;-77
2021/01/17 01:14:43;;;;;;;;;34.00;30.50;;;;;-7.53;61.97;101151.75;5136335;27;8888;-77
2021/01/17 01:17:39;;;;;;;;;26.00;26.00;;;;;-7.37;61.64;101157.56;5136090;27;8839;-77
2021/01/17 01:20:34;;;;;;;;;30.25;29.50;;;;;-7.32;61.95;101152.44;5142482;27;8893;-77
2021/01/17 01:23:02;;;;;;;;;38.00;33.50;;;;;-7.11;62.01;101148.78;5157521;27;8837;-77
2021/01/17 01:25:43;;;;;;;;;43.00;42.75;;;;;-7.09;61.42;101145.88;5141650;27;9582;-77
2021/01/17 01:28:39;;;;;;;;;28.50;28.00;;;;;-7.15;60.76;101134.06;5151037;27;8981;-77
2021/01/17 01:31:36;;;;;;;;;26.50;24.75;;;;;-7.29;60.97;101138.59;5156997;27;8833;-77
2021/01/17 01:34:04;;;;;;;;;27.25;27.00;;;;;-7.75;61.34;101137.59;5138968;27;8845;-77
2021/01/17 01:37:00;;;;;;;;;32.50;32.50;;;;;-7.38;60.33;101128.22;5135906;27;8839;-77
2021/01/17 01:39:56;;;;;;;;;15.25;15.25;;;;;-7.82;60.35;101134.03;5136991;27;8819;-77
2021/01/17 01:42:51;;;;;;;;;32.50;32.50;;;;;-7.41;60.38;101134.84;5135672;27;8953;-77
2021/01/17 01:45:47;;;;;;;;;25.25;25.25;;;;;-7.77;59.18;101137.78;5125449;27;8815;-77
2021/01/17 01:48:44;;;;;;;;;29.50;27.50;;;;;-7.81;59.29;101138.41;5139569;27;8926;-78
2021/01/17 01:51:41;;;;;;;;;24.75;24.75;;;;;-7.41;58.68;101140.22;5136027;27;8823;-78
2021/01/17 01:54:37;;;;;;;;;26.75;26.75;;;;;-7.42;59.21;101141.25;5136098;27;8835;-77
2021/01/17 01:57:34;;;;;;;;;22.25;22.25;;;;;-7.57;58.82;101141.41;5150666;27;8856;-77
2021/01/17 02:00:29;;;;;;;;;22.50;22.50;;;;;-7.52;59.26;101129.22;5156212;27;8864;-77
2021/01/17 02:03:25;;;;;;;;;28.00;27.25;;;;;-7.41;59.05;101125.97;5156457;27;8813;-77
2021/01/17 02:06:25;;;;;;;;;20.00;20.00;;;;;-7.93;59.16;101127.38;5155288;27;8852;-77
2021/01/17 02:09:26;;;;;;;;;18.50;18.50;;;;;-7.91;59.84;101125.31;5135783;27;8864;-77
2021/01/17 02:12:37;;;;;;;;;26.50;23.50;;;;;-7.78;59.44;101127.25;5155576;27;8833;-77
2021/01/17 02:15:37;;;;;;;;;23.75;19.50;;;;;-7.88;59.89;101127.63;5141883;27;8841;-77
2021/01/17 02:18:40;;;;;;;;;30.25;25.00;;;;;-7.76;58.46;101141.31;5155600;27;8805;-77
2021/01/17 02:21:41;;;;;;;;;25.00;25.00;;;;;-7.79;58.58;101144.41;5143214;27;8828;-77
2021/01/17 02:24:11;;;;;;;;;26.00;25.50;;;;;-8.10;58.25;101150.22;5157288;27;8849;-77
2021/01/17 02:27:06;;;;;;;;;10.00;10.00;;;;;-8.27;58.46;101155.91;5155012;27;8969;-78
2021/01/17 02:30:07;;;;;;;;;27.25;26.00;;;;;-7.90;59.38;101159.19;5155865;27;8817;-77
2021/01/17 02:33:26;;;;;;;;;21.75;21.75;;;;;-8.37;60.12;101165.31;5140850;27;8955;-77
2021/01/17 02:36:38;;;;;;;;;22.00;21.50;;;;;-8.57;59.59;101173.22;5121613;27;8827;-77
2021/01/17 02:40:02;;;;;;;;;24.75;24.75;;;;;-8.62;59.65;101176.47;5135425;27;9584;-77
2021/01/17 02:42:59;;;;;;;;;15.50;15.50;;;;;-8.88;58.38;101165.53;5121395;27;8852;-78
2021/01/17 02:45:55;;;;;;;;;16.00;15.50;;;;;-9.16;58.52;101165.44;5134453;27;9579;-77
2021/01/17 02:48:51;;;;;;;;;20.25;17.00;;;;;-8.81;58.70;101159.22;5134647;27;8847;-77
2021/01/17 02:51:51;;;;;;;;;14.25;13.50;;;;;-9.12;58.27;101164.06;5134323;27;8851;-77
2021/01/17 02:54:48;;;;;;;;;22.50;20.50;;;;;-9.10;57.90;101164.69;5134480;27;8843;-77
2021/01/17 02:57:48;;;;;;;;;15.00;15.00;;;;;-9.59;58.18;101166.19;5153799;27;8825;-77
2021/01/17 03:00:47;;;;;;;;;15.75;14.75;;;;;-9.82;58.59;101150.25;5133465;27;8832;-77
2021/01/17 03:03:46;;;;;;;;;15.00;15.00;;;;;-9.99;58.86;101153.31;5122515;27;8911;-77
2021/01/17 03:06:43;;;;;;;;;12.50;11.50;;;;;-9.70;58.49;101168.53;5114053;28;8830;-77
2021/01/17 03:09:43;;;;;;;;;17.50;16.75;;;;;-9.42;57.77;101168.66;5115641;27;8839;-75
2021/01/17 03:12:39;;;;;;;;;16.25;16.25;;;;;-9.66;57.99;101176.00;5134936;27;8820;-75
2021/01/17 03:15:35;;;;;;;;;21.50;21.50;;;;;-9.47;58.05;101163.88;5134730;27;8844;-75
2021/01/17 03:18:31;;;;;;;;;19.00;19.00;;;;;-9.00;57.98;101159.84;5134736;27;8820;-75
2021/01/17 03:21:27;;;;;;;;;18.25;18.25;;;;;-9.64;57.21;101157.06;5133575;27;8840;-75
2021/01/17 03:23:56;;;;;;;;;21.50;18.75;;;;;-9.17;57.60;101155.75;5114480;28;8858;-74
2021/01/17 03:26:52;;;;;;;;;18.00;18.00;;;;;-9.94;58.05;101146.38;5114337;27;8906;-74
2021/01/17 03:29:48;;;;;;;;;14.75;14.75;;;;;-9.96;59.17;101151.09;5114684;28;9560;-73
2021/01/17 03:32:43;;;;;;;;;20.00;18.50;;;;;-10.25;59.40;101157.31;5117815;27;8840;-75
2021/01/17 03:35:12;;;;;;;;;27.00;27.00;;;;;-10.06;58.60;101147.84;5134820;27;9577;-74
2021/01/17 03:37:39;;;;;;;;;13.50;12.50;;;;;-10.42;59.63;101139.78;5134646;27;8848;-77
2021/01/17 03:40:36;;;;;;;;;19.25;17.00;;;;;-10.03;58.97;101154.69;5134457;27;8828;-77
2021/01/17 03:43:32;;;;;;;;;17.00;16.00;;;;;-9.80;59.09;101150.06;5132779;27;8863;-76
2021/01/17 03:46:28;;;;;;;;;18.25;17.00;;;;;-9.65;58.01;101161.59;5134047;27;8832;-75
2021/01/17 03:49:24;;;;;;;;;18.00;17.75;;;;;-9.57;57.92;101176.72;5135678;27;8824;-76
2021/01/17 03:52:20;;;;;;;;;19.00;16.25;;;;;-9.73;58.01;101175.09;5134781;27;8928;-76
2021/01/17 03:55:16;;;;;;;;;11.00;11.00;;;;;-9.97;58.21;101178.84;5135325;27;8834;-77
2021/01/17 03:58:11;;;;;;;;;18.75;16.50;;;;;-9.59;57.68;101181.41;5134253;27;8852;-76
2021/01/17 04:01:07;;;;;;;;;20.00;20.00;;;;;-9.80;57.49;101187.56;5148749;27;8833;-76
2021/01/17 04:04:03;;;;;;;;;20.00;20.00;;;;;-10.16;58.06;101182.91;5144036;27;8857;-77
2021/01/17 04:06:38;;;;;;;;;17.00;17.00;;;;;-9.97;57.32;101186.88;5134272;27;9598;-76
2021/01/17 04:09:34;;;;;;;;;24.75;24.75;;;;;-9.72;57.89;101183.94;5133440;27;8885;-76
2021/01/17 04:12:32;;;;;;;;;19.50;17.75;;;;;-10.15;58.33;101183.75;5133230;27;8859;-77
2021/01/17 04:15:28;;;;;;;;;24.50;22.50;;;;;-10.54;58.51;101178.66;5133209;27;8986;-77
2021/01/17 04:18:23;;;;;;;;;12.75;12.75;;;;;-10.76;59.16;101175.00;5143810;27;8838;-78
2021/01/17 04:21:19;;;;;;;;;12.25;12.25;;;;;-10.65;59.42;101174.56;5136754;27;8946;-78
2021/01/17 04:24:00;;;;;;;;;18.50;15.50;;;;;-10.71;59.39;101180.63;5141865;27;8929;-78
2021/01/17 04:26:59;;;;;;;;;18.00;18.00;;;;;-10.52;58.28;101174.78;5155326;27;8920;-78
2021/01/17 04:29:55;;;;;;;;;22.50;22.50;;;;;-10.43;58.89;101171.03;5155266;27;8821;-78
2021/01/17 04:32:50;;;;;;;;;24.50;22.50;;;;;-10.12;58.61;101170.84;5148984;27;8862;-78
2021/01/17 04:35:47;;;;;;;;;6.75;6.75;;;;;-9.79;58.15;101172.31;5153889;27;8947;-78
2021/01/17 04:38:15;;;;;;;;;14.50;14.50;;;;;-10.40;57.53;101169.81;5136762;27;8832;-77
2021/01/17 04:41:14;;;;;;;;;18.50;18.50;;;;;-10.06;57.02;101157.72;5139643;27;8936;-78
2021/01/17 04:44:12;;;;;;;;;12.75;12.75;;;;;-10.26;57.49;101157.50;5154263;27;8853;-78
2021/01/17 04:47:08;;;;;;;;;18.00;16.00;;;;;-10.31;57.62;101147.34;5142549;27;8844;-78
2021/01/17 04:50:06;;;;;;;;;25.25;24.25;;;;;-9.84;58.20;101146.09;5140138;27;8809;-78
2021/01/17 04:52:57;;;;;;;;;23.25;19.25;;;;;-9.74;58.18;101151.16;5142742;27;8825;-76
2021/01/17 04:56:01;;;;;;;;;17.00;16.50;;;;;-9.71;57.38;101154.31;5143242;27;8821;-77
2021/01/17 04:59:13;;;;;;;;;26.00;26.00;;;;;-9.87;56.53;101144.63;5147613;27;8829;-77
2021/01/17 05:02:24;;;;;;;;;15.75;15.75;;;;;-9.79;56.40;101137.53;5135104;27;8939;-77
2021/01/17 05:05:23;;;;;;;;;17.00;15.50;;;;;-9.75;56.54;101130.75;5140914;27;8857;-77
2021/01/17 05:08:06;;;;;;;;;15.75;15.75;;;;;-10.09;56.36;101124.16;5147176;27;8885;-77
2021/01/17 05:11:06;;;;;;;;;13.00;13.00;;;;;-10.00;56.21;101136.41;5156553;27;8841;-76
2021/01/17 05:14:12;;;;;;;;;13.50;13.50;;;;;-9.97;55.14;101141.38;5157223;27;8953;-77
2021/01/17 05:17:09;;;;;;;;;18.00;11.00;;;;;-10.17;55.09;101132.28;5157175;27;8844;-78
2021/01/17 05:19:59;;;;;;;;;19.00;19.00;;;;;-10.27;54.90;101139.75;5142462;27;8837;-77
2021/01/17 05:22:30;;;;;;;;;16.00;15.50;;;;;-10.02;54.65;101151.84;5138674;27;8829;-77
2021/01/17 05:25:29;;;;;;;;;18.75;17.50;;;;;-10.04;54.18;101151.19;5122722;27;8867;-76
2021/01/17 05:28:25;;;;;;;;;16.75;14.50;;;;;-10.05;54.29;101157.53;5135761;27;8835;-76
2021/01/17 05:31:23;;;;;;;;;14.00;14.00;;;;;-9.98;54.28;101165.66;5136117;27;8933;-76
2021/01/17 05:34:19;;;;;;;;;13.75;13.75;;;;;-10.06;54.33;101166.59;5127277;27;9629;-76
2021/01/17 05:37:15;;;;;;;;;11.50;11.50;;;;;-10.12;54.78;101165.50;5139570;27;9571;-77
2021/01/17 05:40:11;;;;;;;;;29.50;27.00;;;;;-9.73;55.11;101169.72;5146216;27;8821;-76
2021/01/17 05:43:08;;;;;;;;;24.25;19.50;;;;;-9.48;55.44;101170.25;5156396;27;8944;-76
2021/01/17 05:46:11;;;;;;;;;20.75;20.00;;;;;-9.62;53.89;101181.81;5142360;27;8829;-76
2021/01/17 05:49:13;;;;;;;;;21.75;21.75;;;;;-9.70;55.22;101190.75;5142589;27;8967;-76
2021/01/17 05:52:13;;;;;;;;;16.50;16.50;;;;;-9.75;54.61;101190.47;5156222;27;8825;-76
2021/01/17 05:55:16;;;;;;;;;13.00;13.00;;;;;-9.57;54.42;101198.16;5142416;27;8829;-77
2021/01/17 05:58:24;;;;;;;;;13.00;12.25;;;;;-9.74;54.92;101194.81;5134410;27;8829;-77
2021/01/17 06:01:20;;;;;;;;;17.00;17.00;;;;;-9.71;55.00;101182.94;5135663;27;8867;-77
2021/01/17 06:04:16;;;;;;;;;17.50;16.50;;;;;-9.55;55.05;101196.09;5143014;27;8832;-77
2021/01/17 06:07:14;;;;;;;;;13.00;13.00;;;;;-9.71;55.17;101185.59;5156017;27;9685;-77
2021/01/17 06:10:11;;;;;;;;;15.75;15.25;;;;;-9.46;54.65;101196.81;5156070;27;8848;-76
2021/01/17 06:13:07;;;;;;;;;19.75;19.75;;;;;-9.62;54.65;101196.03;5156104;27;8833;-76
2021/01/17 06:16:21;;;;;;;;;15.00;12.75;;;;;-9.13;55.33;101203.38;5144119;27;9563;-76
2021/01/17 06:19:16;;;;;;;;;20.50;19.00;;;;;-9.04;54.26;101202.28;5121449;27;8831;-77
2021/01/17 06:22:13;;;;;;;;;9.50;9.50;;;;;-9.02;54.22;101199.41;5134963;27;8839;-77
2021/01/17 06:24:41;;;;;;;;;21.75;18.75;;;;;-9.31;54.56;101194.94;5117537;27;8851;-77
2021/01/17 06:27:31;;;;;;;;;9.00;9.00;;;;;-9.04;54.49;101212.16;5121156;27;8839;-77
2021/01/17 06:30:29;;;;;;;;;14.50;14.50;;;;;-9.20;54.62;101201.66;5122775;27;8842;-77
2021/01/17 06:33:26;;;;;;;;;12.00;12.00;;;;;-9.48;55.26;101202.38;5136063;27;8903;-77
2021/01/17 06:36:22;;;;;;;;;19.25;19.00;;;;;-8.97;54.95;101199.63;5134677;27;8982;-77
2021/01/17 06:39:25;;;;;;;;;24.50;23.00;;;;;-9.11;54.63;101198.69;5134638;27;8839;-77
2021/01/17 06:42:23;;;;;;;;;15.50;15.50;;;;;-8.97;54.98;101194.28;5120860;27;8827;-77
2021/01/17 06:45:18;;;;;;;;;16.75;16.50;;;;;-9.09;55.17;101193.16;5135591;27;8843;-77
2021/01/17 06:47:54;;;;;;;;;11.50;10.00;;;;;-9.06;55.53;101203.47;5117356;27;8843;-77
2021/01/17 06:50:50;;;;;;;;;22.25;21.75;;;;;-8.87;55.35;101180.59;5134607;27;8887;-77
2021/01/17 06:53:25;;;;;;;;;14.00;14.00;;;;;-8.96;55.33;101177.22;5135504;27;8888;-77
2021/01/17 06:56:21;;;;;;;;;21.25;20.00;;;;;-8.56;54.67;101189.13;5133551;27;8827;-76
2021/01/17 06:59:37;;;;;;;;;13.75;13.75;;;;;-8.32;54.95;101193.22;5120851;27;8831;-76
2021/01/17 07:02:38;;;;;;;;;3.00;3.00;;;;;-8.73;54.24;101185.88;5134033;27;8819;-78
2021/01/17 07:06:01;;;;;;;;;18.50;18.50;;;;;-8.64;54.78;101175.03;5135047;27;8811;-75
2021/01/17 07:08:52;;;;;;;;;12.00;12.00;;;;;-8.66;54.75;101182.41;5112639;27;8835;-76
2021/01/17 07:11:59;;;;;;;;;16.25;16.25;;;;;-9.32;55.35;101172.69;5134180;27;8842;-78
2021/01/17 07:14:28;;;;;;;;;18.50;18.00;;;;;-9.34;55.44;101176.59;5154345;27;8841;-76
2021/01/17 07:17:30;;;;;;;;;21.00;18.75;;;;;-9.17;55.18;101174.50;5140056;27;8963;-76
2021/01/17 07:20:29;;;;;;;;;20.50;20.50;;;;;-8.85;55.05;101175.84;5137265;27;8820;-78
2021/01/17 07:23:25;;;;;;;;;21.50;20.50;;;;;-8.93;54.97;101171.44;5127847;27;8849;-75
2021/01/17 07:26:34;;;;;;;;;21.25;21.25;;;;;-8.89;54.06;101170.06;5148242;27;8829;-75
2021/01/17 07:29:18;;;;;;;;;17.00;16.00;;;;;-9.35;55.00;101158.84;5155091;27;8963;-75
2021/01/17 07:32:31;;;;;;;;;18.50;17.25;;;;;-9.13;54.71;101168.56;5154372;27;8809;-75
2021/01/17 07:35:12;;;;;;;;;16.75;15.75;;;;;-9.18;54.10;101160.28;5138099;27;9664;-76
2021/01/17 07:38:15;;;;;;;;;26.00;26.00;;;;;-8.89;55.34;101172.75;5155400;27;8816;-75
2021/01/17 07:41:13;;;;;;;;;17.00;17.00;;;;;-8.73;54.44;101171.66;5154371;27;8832;-75
2021/01/17 07:44:15;;;;;;;;;28.50;19.75;;;;;-8.64;53.97;101169.66;5154441;27;8817;-75
2021/01/17 07:46:43;;;;;;;;;17.75;17.75;;;;;-8.75;54.12;101177.19;5155126;27;8840;-76
2021/01/17 07:49:39;;;;;;;;;46.50;44.75;;;;;-8.54;53.99;101175.50;5154358;27;8845;-76
2021/01/17 07:52:48;;;;;;;;;35.50;30.00;;;;;-8.25;54.22;101182.53;5140303;27;8833;-75
2021/01/17 07:55:44;;;;;;;;;18.75;15.75;;;;;-8.04;53.91;101170.91;5153846;27;8813;-76
2021/01/17 07:58:42;;;;;;;;;22.75;20.50;;;;;-7.97;54.19;101171.78;5154639;27;8864;-75
2021/01/17 08:01:38;;;;;;;;;29.75;29.75;;;;;-7.70;53.23;101180.81;5154136;27;8849;-76
2021/01/17 08:04:16;;;;;;;;;23.50;23.50;;;;;-7.61;52.63;101187.66;5155236;27;8955;-76
2021/01/17 08:06:45;;;;;;;;;22.50;19.75;;;;;-7.76;52.89;101185.09;5155581;27;8901;-75
2021/01/17 08:09:16;;;;;;;;;22.00;22.00;;;;;-7.45;53.06;101181.13;5137401;27;8833;-75
2021/01/17 08:12:44;;;;;;;;;32.00;27.75;;;;;-7.44;53.54;101180.91;5141087;27;8841;-75
2021/01/17 08:15:40;;;;;;;;;24.75;22.00;;;;;-7.47;52.73;101185.88;5119546;27;8849;-75
2021/01/17 08:18:36;;;;;;;;;19.50;16.75;;;;;-7.39;53.10;101180.31;5153516;27;8859;-75
2021/01/17 08:21:32;;;;;;;;;35.00;33.50;;;;;-7.13;51.95;101183.13;5154098;27;8813;-77
2021/01/17 08:24:13;;;;;;;;;40.00;35.00;;;;;-7.58;52.43;101185.41;5154565;27;8829;-75
2021/01/17 08:26:58;;;;;;;;;26.50;23.00;;;;;-7.57;52.13;101184.38;5155396;27;9655;-75
2021/01/17 08:29:28;;;;;;;;;36.50;33.75;;;;;-7.45;54.13;101168.50;5154586;27;8849;-75
2021/01/17 08:31:55;;;;;;;;;33.00;32.75;;;;;-7.36;53.38;101178.06;5157665;27;8909;-75
2021/01/17 08:34:51;;;;;;;;;30.00;28.00;;;;;-7.53;52.69;101170.53;5157507;27;8851;-75
2021/01/17 08:37:18;;;;;;;;;32.00;27.00;;;;;-7.52;52.64;101158.75;5158983;27;8899;-75
2021/01/17 08:39:47;;;;;;;;;19.00;19.00;;;;;-7.96;52.87;101154.66;5158920;27;9785;-74
2021/01/17 08:42:53;;;;;;;;;26.00;20.00;;;;;-7.80;52.85;101165.06;5158589;27;8858;-75
2021/01/17 08:45:49;;;;;;;;;27.25;25.50;;;;;-7.54;53.06;101183.16;5143254;27;8825;-76
2021/01/17 08:48:49;;;;;;;;;37.25;31.00;;;;;-7.44;52.58;101177.41;5157392;27;8887;-75
2021/01/17 08:51:59;;;;;;;;;34.50;31.25;;;;;-7.28;53.11;101172.53;5157529;27;8904;-75
2021/01/17 08:54:56;;;;;;;;;32.00;24.75;;;;;-7.65;52.59;101160.38;5157549;27;8856;-74
2021/01/17 08:57:52;;;;;;;;;22.50;19.25;;;;;-7.35;52.62;101152.84;5143398;27;9732;-73
2021/01/17 09:00:19;;;;;;;;;28.00;28.00;;;;;-7.41;52.55;101158.19;5158792;27;8841;-75
2021/01/17 09:03:27;;;;;;;;;24.50;24.50;;;;;-7.77;52.47;101153.91;5157531;27;9554;-75
2021/01/17 09:05:56;;;;;;;;;23.25;23.25;;;;;-7.76;53.45;101152.88;5158248;27;8833;-75
2021/01/17 09:08:55;;;;;;;;;26.75;24.00;;;;;-8.20;52.47;101134.47;5157048;27;8813;-75
2021/01/17 09:11:52;;;;;;;;;24.50;22.75;;;;;-8.47;54.84;101136.16;5146171;27;8942;-76
2021/01/17 09:14:51;;;;;;;;;30.75;30.00;;;;;-7.92;54.12;101140.59;5137627;27;8850;-76
2021/01/17 09:18:00;;;;;;;;;29.50;29.25;;;;;-7.75;53.96;101124.16;5139122;27;8838;-76
2021/01/17 09:20:28;;;;;;;;;30.00;28.00;;;;;-8.27;54.01;101123.69;5139586;27;9529;-74
2021/01/17 09:23:25;;;;;;;;;23.00;22.50;;;;;-8.22;53.73;101118.53;5149156;27;9594;-75
2021/01/17 09:26:20;;;;;;;;;26.00;25.00;;;;;-8.16;53.67;101120.44;5146954;27;8855;-75
2021/01/17 09:29:25;;;;;;;;;27.00;27.00;;;;;-8.48;54.31;101129.16;5136905;27;8834;-75
2021/01/17 09:31:57;;;;;;;;;31.50;30.25;;;;;-8.30;54.53;101113.34;5142073;27;8931;-75
2021/01/17 09:34:27;;;;;;;;;27.75;27.75;;;;;-8.56;54.77;101122.06;5139363;27;8953;-75
2021/01/17 09:36:56;;;;;;;;;28.50;27.50;;;;;-8.31;55.26;101110.84;5144702;27;8845;-75
2021/01/17 09:39:52;;;;;;;;;29.75;24.75;;;;;-8.10;54.94;101108.09;5142593;27;8905;-75
2021/01/17 09:42:23;;;;;;;;;35.00;33.75;;;;;-8.16;54.77;101095.47;5145482;27;8837;-75
2021/01/17 09:44:53;;;;;;;;;36.25;29.00;;;;;-8.38;54.83;101099.28;5146700;27;8851;-76
2021/01/17 09:47:23;;;;;;;;;37.75;36.25;;;;;-8.06;54.57;101101.28;5141461;27;8846;-75
2021/01/17 09:49:51;;;;;;;;;27.75;27.75;;;;;-8.25;55.26;101091.28;5132323;27;8877;-75
2021/01/17 09:52:23;;;;;;;;;44.00;36.25;;;;;-7.96;55.16;101084.84;5143820;27;8843;-75
2021/01/17 09:54:53;;;;;;;;;31.50;29.00;;;;;-7.81;54.25;101082.03;5146249;27;8857;-73
2021/01/17 09:57:49;;;;;;;;;25.00;23.50;;;;;-8.08;54.17;101083.75;5144717;27;8829;-76
2021/01/17 10:00:45;;;;;;;;;19.75;19.75;;;;;-8.05;53.92;101072.59;5144522;27;8825;-73
2021/01/17 10:03:56;;;;;;;;;27.75;25.00;;;;;-8.60;54.29;101080.56;5149139;27;8953;-74
2021/01/17 10:06:33;;;;;;;;;25.25;21.00;;;;;-9.34;56.05;101083.66;5119619;27;8839;-74
2021/01/17 10:09:14;;;;;;;;;27.00;23.75;;;;;-8.87;55.44;101089.44;5147270;27;8897;-73
2021/01/17 10:12:05;;;;;;;;;26.25;24.75;;;;;-8.60;55.42;101087.78;5145172;27;8978;-74
2021/01/17 10:14:33;;;;;;;;;28.50;28.50;;;;;-8.48;55.42;101088.91;5147510;27;8832;-75
2021/01/17 10:17:03;;;;;;;;;23.50;23.25;;;;;-9.35;55.46;101083.84;5127274;27;8825;-73
2021/01/17 10:19:59;;;;;;;;;32.50;32.50;;;;;-9.27;56.33;101073.84;5136957;27;8823;-74
2021/01/17 10:23:04;;;;;;;;;22.50;19.50;;;;;-8.93;56.55;101084.84;5125810;27;8831;-74
2021/01/17 10:26:00;;;;;;;;;25.75;24.25;;;;;-9.40;56.48;101080.91;5137106;27;8874;-73
2021/01/17 10:28:55;;;;;;;;;19.75;19.75;;;;;-9.26;56.11;101075.50;5143076;27;8842;-73
2021/01/17 10:31:56;;;;;;;;;24.75;24.75;;;;;-9.47;56.15;101078.16;5115952;27;8964;-76
2021/01/17 10:34:52;;;;;;;;;24.50;24.50;;;;;-9.61;57.33;101073.69;5136212;27;8845;-74
2021/01/17 10:37:51;;;;;;;;;18.25;18.25;;;;;-9.47;56.79;101072.81;5154790;27;8837;-74
2021/01/17 10:40:48;;;;;;;;;25.00;25.00;;;;;-9.57;56.71;101080.34;5134305;27;9016;-74
2021/01/17 10:43:45;;;;;;;;;34.25;31.75;;;;;-9.63;56.91;101081.09;5135459;27;8912;-74
2021/01/17 10:46:47;;;;;;;;;20.25;19.50;;;;;-9.26;56.69;101080.03;5148575;27;8843;-74
2021/01/17 10:49:45;;;;;;;;;35.50;33.00;;;;;-8.97;56.76;101082.56;5125392;27;8849;-74
2021/01/17 10:52:49;;;;;;;;;22.00;21.00;;;;;-9.40;56.26;101072.88;5123420;27;8867;-74
2021/01/17 10:55:49;;;;;;;;;30.25;28.50;;;;;-10.07;57.42;101073.13;5138709;27;8873;-74
2021/01/17 10:58:45;;;;;;;;;24.25;24.25;;;;;-10.00;57.37;101069.53;5132163;27;8933;-74
2021/01/17 11:01:47;;;;;;;;;23.50;23.00;;;;;-10.06;57.57;101066.75;5142653;27;8851;-74
2021/01/17 11:04:42;;;;;;;;;21.50;20.25;;;;;-10.00;57.36;101066.03;5143572;27;8842;-73
2021/01/17 11:07:39;;;;;;;;;19.75;19.75;;;;;-9.95;56.42;101069.81;5141741;27;8856;-73
2021/01/17 11:10:14;;;;;;;;;23.50;18.25;;;;;-9.82;56.09;101075.28;5124823;27;8977;-72
2021/01/17 11:13:16;;;;;;;;;23.50;21.75;;;;;-9.64;55.67;101071.41;5133066;27;8835;-73
2021/01/17 11:15:57;;;;;;;;;27.25;23.50;;;;;-9.88;56.13;101067.22;5133381;27;8845;-73
2021/01/17 11:18:53;;;;;;;;;23.75;22.50;;;;;-9.51;55.77;101071.50;5132696;27;9612;-74
2021/01/17 11:21:37;;;;;;;;;19.00;19.00;;;;;-9.28;54.95;101085.59;5126497;27;8967;-73
2021/01/17 11:24:06;;;;;;;;;26.25;25.25;;;;;-9.48;55.38;101076.50;5140855;27;8922;-73
2021/01/17 11:27:19;;;;;;;;;18.50;18.25;;;;;-9.58;55.36;101084.84;5141788;27;8839;-73
2021/01/17 11:30:15;;;;;;;;;26.00;26.00;;;;;-9.56;55.90;101087.34;5125267;27;8823;-74
2021/01/17 11:33:12;;;;;;;;;28.50;22.00;;;;;-9.58;55.32;101098.25;5129645;27;8885;-75
2021/01/17 11:35:41;;;;;;;;;19.00;19.00;;;;;-9.52;55.01;101096.63;5126047;27;8841;-75
2021/01/17 11:38:57;;;;;;;;;18.75;18.25;;;;;-9.78;55.58;101091.00;5129027;27;8834;-75
2021/01/17 11:41:39;;;;;;;;;20.25;18.00;;;;;-9.83;55.41;101084.34;5127628;27;8860;-75
2021/01/17 11:44:35;;;;;;;;;13.50;13.50;;;;;-9.78;54.75;101088.31;5130303;27;8833;-75
2021/01/17 11:47:31;;;;;;;;;22.75;21.50;;;;;-9.74;54.74;101078.88;5143022;27;9561;-75
2021/01/17 11:49:58;;;;;;;;;15.50;15.50;;;;;-9.59;55.18;101082.34;5118163;27;8942;-75
2021/01/17 11:52:26;;;;;;;;;12.25;12.25;;;;;-9.72;54.55;101088.41;5134354;27;8865;-75
2021/01/17 11:55:21;;;;;;;;;22.75;21.25;;;;;-9.65;54.96;101089.31;5127510;27;8833;-75
2021/01/17 11:57:50;;;;;;;;;17.00;17.00;;;;;-9.81;55.11;101097.56;5146771;27;8836;-75
2021/01/17 12:00:58;;;;;;;;;16.00;16.00;;;;;-9.60;55.35;101089.56;5142346;27;8846;-75
2021/01/17 12:03:33;;;;;;;;;23.00;18.75;;;;;-9.88;54.94;101092.13;5149026;27;8817;-75
2021/01/17 12:06:30;;;;;;;;;17.75;14.75;;;;;-9.82;55.93;101101.22;5144952;27;8838;-74
2021/01/17 12:09:03;;;;;;;;;24.75;21.25;;;;;-9.58;55.22;101102.78;5123141;27;9641;-74
2021/01/17 12:11:47;;;;;;;;;12.75;12.75;;;;;-10.40;54.23;101095.78;5159085;27;8859;-74
2021/01/17 12:14:44;;;;;;;;;19.25;16.00;;;;;-10.17;55.08;101098.34;5133005;27;8945;-75
2021/01/17 12:17:39;;;;;;;;;22.25;21.00;;;;;-9.92;55.08;101095.34;5146867;27;8843;-74
2021/01/17 12:20:09;;;;;;;;;19.50;19.50;;;;;-9.78;54.50;101096.34;5144179;27;8823;-74
2021/01/17 12:22:45;;;;;;;;;18.75;18.75;;;;;-9.90;55.08;101096.00;5138958;27;8950;-74
2021/01/17 12:25:40;;;;;;;;;16.00;15.25;;;;;-9.26;54.79;101096.94;5140287;27;8942;-74
2021/01/17 12:28:08;;;;;;;;;19.50;19.00;;;;;-9.46;53.70;101100.41;5151613;27;8841;-76
2021/01/17 12:30:50;;;;;;;;;12.25;12.25;;;;;-9.36;53.76;101093.72;5152829;27;8853;-74
2021/01/17 12:33:18;;;;;;;;;25.00;20.75;;;;;-9.57;53.46;101099.91;5148466;27;8933;-74
2021/01/17 12:36:16;;;;;;;;;23.25;21.50;;;;;-9.84;54.42;101100.59;5134899;27;8835;-74
2021/01/17 12:38:49;;;;;;;;;18.00;17.25;;;;;-9.84;54.71;101108.63;5124108;27;8861;-73
2021/01/17 12:41:48;;;;;;;;;33.00;28.50;;;;;-9.33;54.58;101108.59;5148804;27;8821;-74
2021/01/17 12:44:43;;;;;;;;;34.50;34.50;;;;;-9.09;54.58;101102.03;5134601;27;8831;-73
2021/01/17 12:47:39;;;;;;;;;22.75;18.25;;;;;-8.98;53.66;101104.19;5140250;27;8827;-74
2021/01/17 12:50:08;;;;;;;;;20.00;19.50;;;;;-8.95;53.40;101095.78;5140839;27;8839;-74
2021/01/17 12:52:50;;;;;;;;;15.25;15.25;;;;;-8.98;52.85;101093.47;5126008;27;8911;-74
2021/01/17 12:55:21;;;;;;;;;21.00;21.00;;;;;-9.04;52.19;101097.75;5131462;27;8837;-74
2021/01/17 12:58:06;;;;;;;;;19.50;18.25;;;;;-9.32;53.04;101097.69;5128281;27;8908;-73
2021/01/17 13:00:33;;;;;;;;;24.50;18.75;;;;;-9.35;53.63;101100.75;5124862;27;8839;-74
2021/01/17 13:03:01;;;;;;;;;14.75;14.75;;;;;-9.38;52.57;101100.28;5153376;27;8871;-74
2021/01/17 13:05:29;;;;;;;;;15.50;15.50;;;;;-9.84;52.89;101095.25;5146267;27;8827;-74
2021/01/17 13:08:07;;;;;;;;;13.00;13.00;;;;;-9.63;52.19;101099.81;5141882;27;8831;-74
2021/01/17 13:10:34;;;;;;;;;14.50;13.50;;;;;-9.79;52.15;101092.84;5131437;27;8825;-74